Time;durP1;ratioP1;P1;durP2;ratioP2;P2;SDS_P1;SDS_P2;PMS_P1;PMS_P2;Temp;Humidity;BMP_temperature;BMP_pressure;BME280_temperature;BME280_humidity;BME280_pressure;Samples;Min_cycle;Max_cycle;Signal;HPM_P1;HPM_P2
2022/03/12 00:01:08;;;;;;;11.23;10.63;;;;;;;-5.87;66.55;102233.50;5025380;28;20111;-69
2022/03/12 00:03:35;;;;;;;11.35;10.77;;;;;;;-5.82;66.78;102251.47;5032639;28;20120;-70
2022/03/12 00:06:00;;;;;;;11.68;11.00;;;;;;;-5.79;67.67;102248.88;5029218;28;20071;-69
2022/03/12 00:08:40;;;;;;;11.98;11.27;;;;;;;-5.88;67.24;102237.78;5035758;28;20025;-69
2022/03/12 00:11:06;;;;;;;11.50;10.88;;;;;;;-5.94;67.39;102244.84;5040100;28;20025;-68
2022/03/12 00:13:32;;;;;;;12.18;11.48;;;;;;;-5.94;68.02;102248.28;5032049;28;20072;-69
2022/03/12 00:15:59;;;;;;;12.20;11.50;;;;;;;-6.00;68.21;102237.22;5032147;28;20030;-69
2022/03/12 00:18:25;;;;;;;11.38;10.77;;;;;;;-5.88;68.10;102247.28;5030540;28;20057;-68
2022/03/12 00:20:50;;;;;;;10.63;10.13;;;;;;;-5.77;68.20;102253.13;5030267;28;20056;-69
2022/03/12 00:23:18;;;;;;;11.82;11.13;;;;;;;-5.89;67.36;102245.56;5030343;28;20120;-67
2022/03/12 00:25:46;;;;;;;11.68;11.05;;;;;;;-5.90;67.39;102254.22;5029595;28;20544;-68
2022/03/12 00:28:15;;;;;;;11.35;10.75;;;;;;;-5.93;67.63;102243.97;5022658;28;20037;-68
2022/03/12 00:30:47;;;;;;;11.85;11.25;;;;;;;-5.91;67.87;102244.78;5036040;28;20113;-68
2022/03/12 00:33:13;;;;;;;12.13;11.43;;;;;;;-5.88;67.80;102247.28;5050275;28;20404;-68
2022/03/12 00:35:40;;;;;;;12.00;11.30;;;;;;;-5.79;67.24;102248.88;5028295;28;20037;-67
2022/03/12 00:38:05;;;;;;;11.60;11.00;;;;;;;-5.79;67.63;102251.44;5029462;28;20029;-68
2022/03/12 00:40:31;;;;;;;11.40;10.82;;;;;;;-5.71;66.75;102245.25;5030180;28;20144;-69
2022/03/12 00:42:57;;;;;;;10.63;10.10;;;;;;;-5.66;66.56;102253.75;5044012;28;20032;-69
2022/03/12 00:45:22;;;;;;;11.75;11.05;;;;;;;-5.67;66.67;102261.53;5049701;28;20543;-69
2022/03/12 00:47:50;;;;;;;11.05;10.45;;;;;;;-5.65;66.38;102247.72;5042732;28;20056;-70
2022/03/12 00:50:16;;;;;;;10.63;10.02;;;;;;;-5.60;65.20;102256.22;5017510;28;20025;-69
2022/03/12 00:52:42;;;;;;;10.90;10.30;;;;;;;-5.50;65.16;102256.91;5029967;28;20469;-69
2022/03/12 00:55:08;;;;;;;11.07;10.48;;;;;;;-5.49;64.78;102257.78;5031546;28;20124;-69
2022/03/12 00:57:34;;;;;;;10.63;10.05;;;;;;;-5.50;63.75;102245.72;5051489;28;20032;-70
2022/03/12 00:59:59;;;;;;;11.43;10.82;;;;;;;-5.43;63.60;102258.50;5033147;28;20457;-70
2022/03/12 01:02:25;;;;;;;10.98;10.38;;;;;;;-5.42;63.40;102251.59;5035394;28;20072;-69
2022/03/12 01:04:50;;;;;;;10.98;10.45;;;;;;;-5.38;63.00;102243.72;5021429;28;20485;-69
2022/03/12 01:07:16;;;;;;;10.52;10.02;;;;;;;-5.43;62.97;102235.22;5043457;28;20064;-68
2022/03/12 01:09:41;;;;;;;10.95;10.35;;;;;;;-5.36;62.83;102249.75;5019846;28;20034;-68
2022/03/12 01:12:08;;;;;;;10.88;10.30;;;;;;;-5.26;62.82;102246.97;5025969;28;20038;-68
2022/03/12 01:14:38;;;;;;;10.52;10.02;;;;;;;-5.29;62.14;102242.69;5020870;28;20025;-67
2022/03/12 01:17:05;;;;;;;11.35;10.65;;;;;;;-5.23;62.33;102252.06;5022466;28;20446;-67
2022/03/12 01:19:31;;;;;;;11.00;10.40;;;;;;;-5.32;62.02;102247.94;5026394;28;20378;-68
2022/03/12 01:21:57;;;;;;;10.50;10.00;;;;;;;-5.20;62.23;102250.28;5031809;28;20025;-67
2022/03/12 01:24:22;;;;;;;11.23;10.63;;;;;;;-5.16;61.70;102244.13;5029821;28;20021;-67
2022/03/12 01:26:48;;;;;;;11.13;10.52;;;;;;;-5.20;61.61;102236.50;5031254;28;20030;-68
2022/03/12 01:29:13;;;;;;;11.38;10.70;;;;;;;-5.20;61.34;102241.66;5031007;28;20384;-68
2022/03/12 01:31:39;;;;;;;11.48;10.82;;;;;;;-5.12;61.43;102239.78;5027774;28;20069;-68
2022/03/12 01:34:04;;;;;;;11.30;10.60;;;;;;;-5.13;61.30;102249.28;5031143;28;20046;-68
2022/03/12 01:36:31;;;;;;;10.45;9.95;;;;;;;-5.12;61.18;102232.00;5029822;28;20057;-68
2022/03/12 01:38:57;;;;;;;10.15;9.65;;;;;;;-5.14;60.21;102239.81;5048561;28;20064;-68
2022/03/12 01:41:30;;;;;;;10.90;10.30;;;;;;;-5.09;60.59;102240.53;5038561;28;20064;-67
2022/03/12 01:43:57;;;;;;;10.88;10.27;;;;;;;-5.18;60.10;102245.91;5030359;28;20021;-68
2022/03/12 01:46:34;;;;;;;10.70;10.15;;;;;;;-5.11;60.57;102241.47;5031006;28;20037;-68
2022/03/12 01:49:06;;;;;;;10.52;10.00;;;;;;;-5.11;60.38;102241.47;5031362;28;20029;-67
2022/03/12 01:51:33;;;;;;;11.13;10.48;;;;;;;-5.12;60.73;102244.94;5034619;28;20045;-67
2022/03/12 01:54:02;;;;;;;10.98;10.38;;;;;;;-5.15;61.06;102239.81;5034492;28;20026;-68
2022/03/12 01:56:28;;;;;;;10.43;9.93;;;;;;;-5.16;60.78;102238.97;5041771;28;20091;-68
2022/03/12 01:58:57;;;;;;;10.80;10.20;;;;;;;-5.18;60.48;102245.91;5036517;28;20109;-68
2022/03/12 02:01:26;;;;;;;10.73;10.23;;;;;;;-5.24;59.94;102240.00;5034255;28;20128;-68
2022/03/12 02:03:52;;;;;;;11.02;10.43;;;;;;;-5.30;60.29;102239.25;5034071;28;20032;-68
2022/03/12 02:06:21;;;;;;;10.85;10.25;;;;;;;-5.30;61.04;102241.00;5034265;28;20025;-68
2022/03/12 02:08:48;;;;;;;10.90;10.30;;;;;;;-5.38;60.51;102241.16;5034563;28;20423;-68
2022/03/12 02:11:27;;;;;;;10.40;9.90;;;;;;;-5.49;60.77;102235.34;5034597;28;20024;-67
2022/03/12 02:14:26;;;;;;;11.95;11.23;;;;;;;-5.53;61.00;102238.88;5019783;28;20029;-68
2022/03/12 02:16:54;;;;;;;11.77;11.07;;;;;;;-5.59;61.17;102241.56;4990890;28;20045;-67
2022/03/12 02:19:22;;;;;;;11.55;10.95;;;;;;;-5.65;61.48;102241.72;5014405;28;20030;-67
2022/03/12 02:21:56;;;;;;;10.73;10.23;;;;;;;-5.69;61.24;102233.13;5032585;28;20029;-68
2022/03/12 02:24:24;;;;;;;12.20;11.50;;;;;;;-5.76;61.65;102230.69;5034257;28;20036;-68
2022/03/12 02:26:50;;;;;;;11.90;11.20;;;;;;;-5.82;61.95;102223.91;5025682;28;20110;-68
2022/03/12 02:29:21;;;;;;;11.65;11.05;;;;;;;-5.85;62.12;102226.56;5031666;28;20021;-68
2022/03/12 02:31:57;;;;;;;12.02;11.32;;;;;;;-5.88;62.20;102224.88;5027926;28;20030;-68
2022/03/12 02:34:38;;;;;;;12.18;11.48;;;;;;;-5.91;62.79;102230.13;5013682;28;20052;-68
2022/03/12 02:37:05;;;;;;;12.38;11.68;;;;;;;-5.97;63.01;102229.38;5022987;28;20034;-68
2022/03/12 02:39:31;;;;;;;11.98;11.38;;;;;;;-6.03;63.30;102225.19;5034075;28;20026;-67
2022/03/12 02:42:00;;;;;;;11.88;11.27;;;;;;;-6.08;63.71;102236.50;5018290;28;20389;-67
2022/03/12 02:44:28;;;;;;;11.82;11.23;;;;;;;-6.09;63.62;102234.78;5033365;28;20021;-68
2022/03/12 02:47:15;;;;;;;12.15;11.45;;;;;;;-6.16;63.91;102236.63;5047785;28;20037;-68
2022/03/12 02:50:06;;;;;;;12.38;11.73;;;;;;;-6.17;64.22;102245.22;5031757;28;20199;-68
2022/03/12 02:52:33;;;;;;;12.65;11.95;;;;;;;-6.28;64.36;102240.25;5010588;28;20523;-68
2022/03/12 02:54:59;;;;;;;12.35;11.65;;;;;;;-6.29;64.73;102256.63;5018766;28;20030;-67
2022/03/12 02:57:27;;;;;;;12.70;12.00;;;;;;;-6.28;65.02;102252.31;5042203;28;20033;-68
2022/03/12 03:00:06;;;;;;;13.10;12.30;;;;;;;-6.35;65.21;102246.41;5033478;28;20029;-68
2022/03/12 03:02:39;;;;;;;12.18;11.57;;;;;;;-6.41;65.48;102243.91;5032386;28;20060;-68
2022/03/12 03:05:44;;;;;;;12.75;12.05;;;;;;;-6.46;66.24;102244.00;5036190;28;20028;-68
2022/03/12 03:08:11;;;;;;;12.82;12.13;;;;;;;-6.56;66.26;102236.41;5032956;28;20091;-67
2022/03/12 03:10:37;;;;;;;12.50;11.82;;;;;;;-6.54;66.75;102244.97;5021562;28;20028;-69
2022/03/12 03:13:16;;;;;;;12.50;11.90;;;;;;;-6.64;67.38;102253.75;5031937;28;20132;-68
2022/03/12 03:16:03;;;;;;;13.27;12.55;;;;;;;-6.71;67.82;102247.81;5037101;28;20035;-68
2022/03/12 03:18:33;;;;;;;14.20;13.30;;;;;;;-6.79;68.09;102244.50;5046949;28;20022;-69
2022/03/12 03:21:00;;;;;;;12.77;12.07;;;;;;;-6.88;68.54;102250.63;5034172;28;20030;-70
2022/03/12 03:23:28;;;;;;;12.93;12.25;;;;;;;-6.90;68.79;102254.09;5033155;28;20030;-68
2022/03/12 03:25:54;;;;;;;12.75;12.10;;;;;;;-6.97;69.03;102243.88;5032916;28;20096;-69
2022/03/12 03:28:20;;;;;;;13.10;12.40;;;;;;;-6.96;68.91;102253.31;5027912;28;20113;-68
2022/03/12 03:30:46;;;;;;;13.63;12.82;;;;;;;-7.08;69.12;102242.31;5032702;28;20013;-69
2022/03/12 03:33:19;;;;;;;13.32;12.63;;;;;;;-7.07;68.98;102244.88;5032479;28;20033;-67
2022/03/12 03:35:45;;;;;;;13.02;12.32;;;;;;;-7.11;69.43;102243.22;5032450;28;20045;-68
2022/03/12 03:38:13;;;;;;;13.60;12.80;;;;;;;-7.18;69.68;102251.06;5027335;28;20038;-69
2022/03/12 03:40:40;;;;;;;14.23;13.32;;;;;;;-7.22;69.90;102262.25;5030934;28;20025;-68
2022/03/12 03:43:34;;;;;;;13.00;12.30;;;;;;;-7.23;69.92;102266.56;5031057;28;20053;-68
2022/03/12 03:45:59;;;;;;;13.27;12.57;;;;;;;-7.20;69.84;102266.53;5048622;28;20058;-69
2022/03/12 03:48:25;;;;;;;13.30;12.60;;;;;;;-7.28;69.80;102268.34;5052243;28;20035;-69
2022/03/12 03:50:52;;;;;;;13.77;12.98;;;;;;;-7.29;69.89;102264.91;5045881;28;20052;-66
2022/03/12 03:53:20;;;;;;;14.02;13.23;;;;;;;-7.27;70.59;102275.19;5038437;28;20645;-68
2022/03/12 03:55:46;;;;;;;13.80;13.00;;;;;;;-7.27;70.58;102270.94;5030529;28;20473;-67
2022/03/12 03:58:13;;;;;;;13.40;12.70;;;;;;;-7.43;70.89;102260.78;5012250;28;20038;-68
2022/03/12 04:00:39;;;;;;;14.13;13.32;;;;;;;-7.46;71.56;102258.25;5021745;28;20036;-67
2022/03/12 04:03:09;;;;;;;13.85;13.15;;;;;;;-7.56;72.38;102266.09;5048482;28;20091;-68
2022/03/12 04:05:37;;;;;;;15.27;14.48;;;;;;;-7.54;72.64;102268.66;5032013;28;20037;-68
2022/03/12 04:08:06;;;;;;;14.27;13.43;;;;;;;-7.67;72.49;102267.06;5031523;28;20725;-66
2022/03/12 04:10:38;;;;;;;14.00;13.20;;;;;;;-7.71;73.15;102274.00;5025602;28;20033;-68
2022/03/12 04:13:12;;;;;;;14.15;13.38;;;;;;;-7.68;72.99;102281.69;5029287;28;20037;-68
2022/03/12 04:15:38;;;;;;;;;;;;;;;-7.66;73.18;102276.50;5035548;28;20451;-67
2022/03/12 04:18:05;;;;;;;14.55;13.75;;;;;;;-7.74;73.02;102278.31;5047717;28;19909;-68
2022/03/12 04:20:31;;;;;;;14.57;13.77;;;;;;;-7.84;72.49;102270.69;5031903;28;20029;-68
2022/03/12 04:22:56;;;;;;;15.00;14.20;;;;;;;-7.91;72.33;102263.88;5030687;28;20485;-67
2022/03/12 04:25:23;;;;;;;15.48;14.57;;;;;;;-7.84;73.22;102280.13;5014906;28;20049;-68
2022/03/12 04:27:49;;;;;;;14.20;13.40;;;;;;;-7.76;71.74;102280.91;5010887;28;20444;-67
2022/03/12 04:30:20;;;;;;;13.85;13.15;;;;;;;-7.71;71.99;102281.72;5032125;28;20056;-67
2022/03/12 04:32:47;;;;;;;15.63;14.63;;;;;;;-7.75;72.31;102276.59;5039332;28;20033;-67
2022/03/12 04:35:13;;;;;;;15.20;14.30;;;;;;;-7.53;73.10;102298.72;5030109;28;20049;-67
2022/03/12 04:37:39;;;;;;;13.07;12.38;;;;;;;-7.18;71.73;102294.88;5042600;28;20421;-67
2022/03/12 04:40:17;;;;;;;13.07;12.32;;;;;;;-6.68;70.25;102302.84;5051518;28;20030;-67
2022/03/12 04:42:44;;;;;;;11.75;11.10;;;;;;;-6.23;68.23;102307.34;5049419;28;20040;-68
2022/03/12 04:45:14;;;;;;;11.63;10.93;;;;;;;-5.75;66.02;102307.34;5039429;28;20503;-68
2022/03/12 04:47:45;;;;;;;10.32;9.73;;;;;;;-5.34;65.27;102312.63;5022299;28;20064;-68
2022/03/12 04:50:12;;;;;;;9.63;9.02;;;;;;;-4.84;64.20;102317.69;5030810;28;20025;-67
2022/03/12 04:52:41;;;;;;;8.23;7.75;;;;;;;-4.59;63.39;102324.03;5044019;28;20094;-68
2022/03/12 04:55:10;;;;;;;8.07;7.65;;;;;;;-4.35;61.20;102312.25;5051506;28;20056;-67
2022/03/12 04:57:36;;;;;;;8.13;7.63;;;;;;;-3.82;60.24;102328.25;5032561;28;20052;-68
2022/03/12 05:00:07;;;;;;;8.05;7.55;;;;;;;-3.35;57.80;102329.63;5046659;28;20067;-67
2022/03/12 05:02:33;;;;;;;8.20;7.70;;;;;;;-3.16;56.77;102334.28;5049845;28;20028;-69
2022/03/12 05:04:58;;;;;;;7.93;7.43;;;;;;;-2.63;55.04;102343.16;5032257;28;20384;-68
2022/03/12 05:07:26;;;;;;;7.47;7.07;;;;;;;-2.68;53.40;102332.03;5030032;28;20040;-66
2022/03/12 05:09:53;;;;;;;7.60;7.20;;;;;;;-1.59;51.88;102339.00;5031517;28;20101;-68
2022/03/12 05:12:20;;;;;;;8.63;8.13;;;;;;;-0.82;48.98;102339.72;5036815;28;20033;-68
2022/03/12 05:14:48;;;;;;;7.38;6.97;;;;;;;1.01;43.49;102343.47;5031043;28;20036;-69
2022/03/12 05:17:15;;;;;;;7.47;7.07;;;;;;;3.77;39.25;102344.38;5031010;28;20495;-68
2022/03/12 05:19:41;;;;;;;7.18;6.88;;;;;;;4.30;36.91;102336.97;5036993;28;20044;-69
2022/03/12 05:22:07;;;;;;;7.40;7.00;;;;;;;5.43;35.43;102349.31;5034243;28;20420;-69
2022/03/12 05:24:33;;;;;;;8.02;7.63;;;;;;;5.11;33.96;102343.44;5024099;28;20510;-69
2022/03/12 05:27:00;;;;;;;7.35;7.05;;;;;;;5.95;33.07;102353.06;5036089;28;20052;-69
2022/03/12 05:29:26;;;;;;;7.60;7.20;;;;;;;6.60;31.42;102348.69;5034815;28;20029;-69
2022/03/12 05:31:52;;;;;;;7.32;7.03;;;;;;;8.38;29.81;102347.41;5044302;28;20035;-69
2022/03/12 05:34:23;;;;;;;7.68;7.30;;;;;;;8.00;29.55;102348.41;5054422;28;20048;-71
2022/03/12 05:36:50;;;;;;;7.53;7.22;;;;;;;9.28;27.96;102361.59;5045179;28;20068;-69
2022/03/12 05:39:16;;;;;;;7.63;7.32;;;;;;;10.05;26.73;102352.72;5049896;28;20080;-68
2022/03/12 05:41:44;;;;;;;8.30;7.90;;;;;;;11.31;25.88;102355.22;5037970;28;20031;-69
2022/03/12 05:44:13;;;;;;;8.00;7.60;;;;;;;9.82;26.62;102354.63;5034782;28;20500;-70
2022/03/12 05:46:38;;;;;;;8.48;8.07;;;;;;;11.86;24.72;102355.63;5042800;28;20033;-69
2022/03/12 05:49:04;;;;;;;7.78;7.47;;;;;;;10.96;25.42;102358.28;5046912;28;20101;-69
2022/03/12 05:51:29;;;;;;;8.13;7.72;;;;;;;11.38;25.23;102362.63;5048380;28;20029;-69
2022/03/12 05:53:55;;;;;;;7.70;7.40;;;;;;;11.66;24.26;102361.03;5053580;28;20450;-70
2022/03/12 05:56:20;;;;;;;8.75;8.35;;;;;;;12.15;24.22;102354.81;5038795;28;20030;-70
2022/03/12 05:58:46;;;;;;;8.70;8.30;;;;;;;12.97;23.66;102352.41;5029911;28;20412;-71
2022/03/12 06:01:11;;;;;;;8.38;7.97;;;;;;;12.43;23.54;102351.31;5050921;28;20367;-70
2022/03/12 06:03:37;;;;;;;7.70;7.40;;;;;;;12.68;22.66;102357.00;5033991;28;20029;-70
2022/03/12 06:06:03;;;;;;;8.32;7.93;;;;;;;12.66;23.10;102362.47;5051609;28;20103;-71
2022/03/12 06:08:29;;;;;;;8.25;7.85;;;;;;;14.19;21.22;102365.50;5043285;28;20078;-71
2022/03/12 06:10:56;;;;;;;8.05;7.72;;;;;;;14.31;21.28;102372.25;5032654;28;20025;-70
2022/03/12 06:13:28;;;;;;;9.52;9.10;;;;;;;15.09;20.24;102372.31;5034041;28;20070;-69
2022/03/12 06:16:00;;;;;;;9.10;8.70;;;;;;;13.59;21.07;102363.41;5033144;28;20016;-70
2022/03/12 06:18:33;;;;;;;8.40;8.00;;;;;;;14.68;19.97;102376.56;5033832;28;20029;-70
2022/03/12 06:20:59;;;;;;;8.23;7.82;;;;;;;15.10;19.97;102372.16;5038884;28;20088;-70
2022/03/12 06:23:25;;;;;;;8.57;8.18;;;;;;;15.31;19.70;102379.78;5039834;28;20029;-69
2022/03/12 06:25:52;;;;;;;8.45;8.05;;;;;;;14.60;20.06;102380.88;5035592;28;20406;-69
2022/03/12 06:28:19;;;;;;;8.00;7.70;;;;;;;16.12;19.70;102384.56;5033963;28;20029;-70
2022/03/12 06:30:47;;;;;;;8.50;8.10;;;;;;;14.06;20.43;102384.56;5033589;28;20025;-70
2022/03/12 06:33:18;;;;;;;8.60;8.20;;;;;;;14.14;20.89;102381.13;5033744;28;20084;-68
2022/03/12 06:35:45;;;;;;;8.38;7.97;;;;;;;15.31;20.39;102378.94;5031682;28;20045;-70
2022/03/12 06:38:11;;;;;;;8.20;7.80;;;;;;;14.90;20.45;102376.06;5038610;28;20029;-70
2022/03/12 06:40:36;;;;;;;8.50;8.10;;;;;;;14.29;21.06;102377.75;5053090;28;20102;-70
2022/03/12 06:43:05;;;;;;;8.43;8.02;;;;;;;15.69;19.88;102374.94;5038859;28;20092;-70
2022/03/12 06:45:32;;;;;;;8.07;7.78;;;;;;;14.47;20.37;102369.78;5033405;28;20393;-68
2022/03/12 06:47:58;;;;;;;8.63;8.23;;;;;;;15.18;19.63;102361.50;5031911;28;20101;-70
2022/03/12 06:50:24;;;;;;;8.70;8.30;;;;;;;15.56;19.86;102364.66;5033723;28;20035;-70
2022/03/12 06:52:51;;;;;;;8.30;7.90;;;;;;;14.48;20.84;102373.28;5015532;28;20025;-70
2022/03/12 06:55:18;;;;;;;8.55;8.15;;;;;;;14.96;20.12;102378.09;5033438;28;20025;-71
2022/03/12 06:57:46;;;;;;;8.57;8.18;;;;;;;14.97;20.04;102382.44;5033297;28;20053;-70
2022/03/12 07:00:20;;;;;;;8.35;7.95;;;;;;;14.98;19.83;102388.63;5031785;28;20041;-69
2022/03/12 07:02:45;;;;;;;8.97;8.57;;;;;;;14.61;19.97;102385.22;5042212;28;20025;-71
2022/03/12 07:05:11;;;;;;;9.02;8.63;;;;;;;14.89;20.10;102385.91;5023362;28;20128;-70
2022/03/12 07:07:37;;;;;;;8.40;8.00;;;;;;;14.17;21.08;102397.66;5037385;28;20063;-70
2022/03/12 07:10:05;;;;;;;8.32;7.93;;;;;;;15.59;19.73;102375.06;5041029;28;20079;-70
2022/03/12 07:12:30;;;;;;;8.52;8.13;;;;;;;14.61;20.08;102390.56;5033012;28;20484;-70
2022/03/12 07:14:56;;;;;;;8.23;7.90;;;;;;;15.19;20.04;102392.59;5032789;28;20044;-70
2022/03/12 07:17:21;;;;;;;8.45;8.05;;;;;;;15.22;20.11;102387.94;5033028;28;20053;-70
2022/03/12 07:19:47;;;;;;;9.23;8.82;;;;;;;14.36;20.27;102388.66;5031268;28;20890;-70
2022/03/12 07:22:13;;;;;;;8.50;8.10;;;;;;;14.89;19.90;102375.22;5033040;28;20451;-72
2022/03/12 07:24:38;;;;;;;8.18;7.85;;;;;;;15.37;19.44;102378.31;5012940;28;20044;-70
2022/03/12 07:27:04;;;;;;;8.13;7.82;;;;;;;14.94;19.55;102377.44;5017878;28;20026;-71
2022/03/12 07:29:31;;;;;;;8.57;8.18;;;;;;;15.09;20.05;102381.19;5034145;28;20086;-70
2022/03/12 07:31:57;;;;;;;8.98;8.57;;;;;;;16.09;18.77;102384.91;5025368;28;20057;-70
2022/03/12 07:34:24;;;;;;;8.88;8.48;;;;;;;15.03;19.23;102373.78;5030138;28;20049;-68
2022/03/12 07:36:49;;;;;;;10.00;9.50;;;;;;;14.39;19.55;102380.31;5024788;28;20021;-68
2022/03/12 07:39:15;;;;;;;8.35;7.95;;;;;;;15.36;18.97;102379.31;5031127;28;20025;-69
2022/03/12 07:41:41;;;;;;;8.95;8.55;;;;;;;14.49;19.13;102370.44;5026425;28;20753;-69
2022/03/12 07:44:07;;;;;;;8.27;7.93;;;;;;;15.80;18.11;102380.00;5036448;28;20032;-70
2022/03/12 07:46:36;;;;;;;8.55;8.15;;;;;;;16.96;17.73;102369.09;5032877;28;20064;-70
2022/03/12 07:49:03;;;;;;;9.10;8.70;;;;;;;16.58;17.57;102375.00;5035536;28;20103;-70
2022/03/12 07:51:29;;;;;;;8.55;8.15;;;;;;;15.79;18.24;102372.09;5030151;28;20446;-70
2022/03/12 07:53:55;;;;;;;8.52;8.13;;;;;;;16.10;18.10;102375.03;5033804;28;20021;-70
2022/03/12 07:56:20;;;;;;;8.50;8.10;;;;;;;15.92;18.24;102359.09;5028520;28;20554;-70
2022/03/12 07:58:47;;;;;;;9.07;8.68;;;;;;;16.15;17.93;102372.66;5029113;28;20113;-69
2022/03/12 08:01:12;;;;;;;9.25;8.85;;;;;;;15.99;17.34;102368.97;5028779;28;20067;-70
2022/03/12 08:03:38;;;;;;;9.32;8.93;;;;;;;15.86;17.57;102371.28;5020090;28;20029;-70
2022/03/12 08:06:06;;;;;;;8.10;7.80;;;;;;;16.48;17.25;102370.84;5026720;28;20025;-70
2022/03/12 08:08:32;;;;;;;8.57;8.18;;;;;;;15.00;17.60;102359.94;5029873;28;20083;-69
2022/03/12 08:13:43;;;;;;;8.70;8.30;;;;;;;16.07;17.76;102370.81;5036760;28;20036;-69
2022/03/12 08:16:08;;;;;;;7.97;7.68;;;;;;;16.45;17.44;102363.13;5028993;28;20049;-70
2022/03/12 08:18:34;;;;;;;8.32;7.93;;;;;;;15.73;17.50;102362.91;5031148;28;20036;-69
2022/03/12 08:20:59;;;;;;;8.63;8.23;;;;;;;14.61;18.00;102353.16;5027709;28;20094;-70
2022/03/12 08:23:25;;;;;;;8.35;7.95;;;;;;;14.88;18.23;102362.84;5026055;28;20035;-70
2022/03/12 08:25:51;;;;;;;8.30;7.93;;;;;;;13.83;18.62;102362.81;5030253;28;20447;-69
2022/03/12 08:28:18;;;;;;;8.77;8.38;;;;;;;14.07;18.11;102357.72;5025865;28;20545;-70
2022/03/12 08:30:46;;;;;;;8.55;8.15;;;;;;;14.90;18.32;102352.84;5029103;28;20366;-68
2022/03/12 08:33:12;;;;;;;8.75;8.35;;;;;;;16.23;17.39;102359.28;5033825;28;20108;-70
2022/03/12 08:35:37;;;;;;;8.98;8.57;;;;;;;15.68;17.45;102357.22;5032584;28;20129;-69
2022/03/12 08:38:03;;;;;;;8.63;8.23;;;;;;;13.28;17.92;102344.19;5024476;28;21598;-69
2022/03/12 08:40:29;;;;;;;8.90;8.50;;;;;;;16.32;16.95;102352.09;5034996;28;20437;-68
2022/03/12 08:42:55;;;;;;;8.60;8.20;;;;;;;14.08;17.86;102343.38;5029348;28;20025;-68
2022/03/12 08:45:20;;;;;;;8.52;8.13;;;;;;;15.63;16.61;102343.47;5038214;28;20067;-69
2022/03/12 08:47:46;;;;;;;8.40;8.00;;;;;;;15.35;16.69;102341.03;5034216;28;20471;-69
2022/03/12 08:50:13;;;;;;;8.50;8.10;;;;;;;13.63;17.50;102346.09;5035849;28;20429;-68
2022/03/12 08:52:39;;;;;;;8.77;8.38;;;;;;;15.01;17.07;102341.06;5031129;28;20025;-68
2022/03/12 08:55:06;;;;;;;9.10;8.70;;;;;;;13.61;17.69;102349.91;5031403;28;20037;-69
2022/03/12 08:57:31;;;;;;;9.15;8.75;;;;;;;13.24;18.54;102337.50;5034254;28;20047;-70
2022/03/12 08:59:57;;;;;;;11.60;10.90;;;;;;;14.21;18.61;102339.47;5036795;28;20164;-66
2022/03/12 09:02:23;;;;;;;9.57;9.07;;;;;;;12.80;18.53;102333.72;5033989;28;20104;-67
2022/03/12 09:04:49;;;;;;;10.00;9.50;;;;;;;13.38;18.76;102328.16;5033173;28;20021;-67
2022/03/12 09:07:14;;;;;;;10.43;9.82;;;;;;;13.55;18.71;102338.84;5040459;28;20061;-68
2022/03/12 09:09:40;;;;;;;9.90;9.40;;;;;;;12.29;20.07;102332.28;5030754;28;20053;-66
2022/03/12 09:12:06;;;;;;;9.10;8.65;;;;;;;12.52;19.20;102325.66;5032472;28;20037;-67
2022/03/12 09:14:34;;;;;;;9.82;9.32;;;;;;;12.41;19.50;102328.44;5039051;28;20029;-66
2022/03/12 09:17:02;;;;;;;10.68;10.07;;;;;;;12.62;19.05;102323.78;5033916;28;20026;-67
2022/03/12 09:19:27;;;;;;;10.40;9.80;;;;;;;12.32;19.63;102324.81;5029343;28;20109;-67
2022/03/12 09:21:55;;;;;;;9.30;8.80;;;;;;;12.42;19.88;102308.88;5032987;28;20120;-67
2022/03/12 09:24:21;;;;;;;9.45;8.95;;;;;;;12.21;20.40;102306.38;5031416;28;20028;-67
2022/03/12 09:26:46;;;;;;;9.07;8.63;;;;;;;11.61;20.87;102316.25;5028212;28;20025;-67
2022/03/12 09:29:12;;;;;;;9.55;9.05;;;;;;;12.70;19.42;102309.75;5030528;28;20033;-67
2022/03/12 09:31:38;;;;;;;8.55;8.15;;;;;;;10.42;21.76;102294.81;5031737;28;20132;-66
2022/03/12 09:34:05;;;;;;;8.77;8.38;;;;;;;6.54;26.14;102299.03;5030495;28;20042;-67
2022/03/12 09:36:31;;;;;;;9.05;8.60;;;;;;;11.85;20.77;102290.16;5018879;28;20022;-68
2022/03/12 09:38:57;;;;;;;9.10;8.63;;;;;;;11.10;20.56;102274.75;5030350;28;20549;-68
2022/03/12 09:41:22;;;;;;;8.20;7.80;;;;;;;10.74;21.21;102271.69;5031335;28;20116;-68
2022/03/12 09:43:48;;;;;;;8.73;8.32;;;;;;;10.72;21.23;102273.63;5030366;28;20022;-66
2022/03/12 09:46:13;;;;;;;9.18;8.68;;;;;;;9.52;22.42;102278.47;5030758;28;20030;-67
2022/03/12 09:48:39;;;;;;;9.88;9.30;;;;;;;8.15;23.83;102261.88;5024865;28;20116;-66
2022/03/12 09:51:04;;;;;;;10.02;9.43;;;;;;;8.35;24.59;102278.88;5034997;28;20071;-69
2022/03/12 09:53:30;;;;;;;9.88;9.30;;;;;;;7.68;25.36;102268.88;5025048;28;20481;-67
2022/03/12 09:55:56;;;;;;;10.05;9.45;;;;;;;6.40;26.56;102264.88;5030588;28;20029;-67
2022/03/12 09:58:21;;;;;;;9.38;8.88;;;;;;;4.97;28.07;102260.13;5028954;28;20155;-68
2022/03/12 10:00:47;;;;;;;9.68;9.15;;;;;;;6.30;27.70;102243.53;5027427;28;20838;-66
2022/03/12 10:03:13;;;;;;;10.57;9.90;;;;;;;5.23;27.96;102255.88;5034085;28;20032;-68
2022/03/12 10:05:39;;;;;;;9.65;9.15;;;;;;;5.16;29.50;102245.84;5034148;28;20446;-68
2022/03/12 10:08:04;;;;;;;9.23;8.73;;;;;;;6.25;27.68;102231.66;5032157;28;20058;-68
2022/03/12 10:10:30;;;;;;;9.32;8.82;;;;;;;6.38;27.18;102187.66;5033527;28;20060;-69
2022/03/12 10:12:58;;;;;;;10.70;10.00;;;;;;;6.40;27.49;102219.22;5030635;28;20400;-69
2022/03/12 10:15:23;;;;;;;8.70;8.20;;;;;;;6.10;27.83;102228.28;5029818;28;20484;-70
2022/03/12 10:17:49;;;;;;;8.65;8.23;;;;;;;6.27;27.53;102222.69;5028237;28;20060;-67
2022/03/12 10:20:15;;;;;;;9.07;8.57;;;;;;;6.21;27.76;102209.06;5032514;28;20030;-68
2022/03/12 10:22:42;;;;;;;8.95;8.45;;;;;;;5.35;28.29;102209.50;5021680;28;20060;-70
2022/03/12 10:25:09;;;;;;;9.88;9.27;;;;;;;5.97;28.27;102199.25;5031555;28;20582;-69
2022/03/12 10:27:35;;;;;;;9.65;9.05;;;;;;;5.59;28.27;102190.44;5021485;28;20044;-68
2022/03/12 10:30:01;;;;;;;8.75;8.30;;;;;;;4.93;29.69;102197.31;5032897;28;20022;-70
2022/03/12 10:32:34;;;;;;;9.75;9.15;;;;;;;5.01;30.10;102197.69;5024014;28;20026;-69
2022/03/12 10:35:02;;;;;;;9.48;8.93;;;;;;;5.00;29.93;102193.38;5021631;28;20045;-68
2022/03/12 10:37:32;;;;;;;9.57;8.98;;;;;;;4.40;30.53;102183.09;5028040;28;20033;-68
2022/03/12 10:40:07;;;;;;;9.30;8.75;;;;;;;4.61;30.01;102183.56;5011541;28;20117;-68
2022/03/12 10:42:43;;;;;;;8.60;8.10;;;;;;;4.92;30.27;102175.44;5023657;28;20061;-68
2022/03/12 10:45:12;;;;;;;9.38;8.82;;;;;;;4.72;30.16;102160.09;5029195;28;20030;-67
2022/03/12 10:47:45;;;;;;;8.98;8.48;;;;;;;4.84;29.73;102156.66;5046062;28;20060;-68
2022/03/12 10:50:21;;;;;;;9.18;8.63;;;;;;;5.14;29.80;102163.53;5031834;28;20104;-68
2022/03/12 10:52:51;;;;;;;8.93;8.43;;;;;;;4.95;30.05;102156.00;5033314;28;20744;-69
2022/03/12 10:55:30;;;;;;;9.43;8.82;;;;;;;4.97;29.89;102148.84;5032691;28;20079;-68
2022/03/12 10:58:05;;;;;;;8.20;7.80;;;;;;;4.84;30.34;102138.25;5017768;28;20037;-66
2022/03/12 11:00:48;;;;;;;9.98;9.32;;;;;;;4.59;31.20;102132.88;5029164;28;20117;-66
2022/03/12 11:03:19;;;;;;;9.32;8.73;;;;;;;4.72;30.91;102113.59;5025201;28;20025;-69
2022/03/12 11:05:45;;;;;;;8.75;8.25;;;;;;;4.67;31.10;102117.47;5039221;28;20108;-68
2022/03/12 11:08:25;;;;;;;9.68;9.07;;;;;;;4.74;31.11;102123.19;5023661;28;20017;-67
2022/03/12 11:10:52;;;;;;;8.82;8.32;;;;;;;4.88;30.84;102118.72;5021721;28;20536;-68
2022/03/12 11:13:47;;;;;;;8.85;8.35;;;;;;;4.77;31.14;102113.28;5027243;28;20041;-69
2022/03/12 11:16:32;;;;;;;9.40;8.80;;;;;;;5.10;30.85;102112.06;5020357;28;20030;-69
2022/03/12 11:19:12;;;;;;;9.15;8.60;;;;;;;4.86;30.45;102107.47;5020578;28;20033;-69
2022/03/12 11:21:55;;;;;;;8.68;8.18;;;;;;;5.09;30.13;102097.25;5032197;28;20040;-69
2022/03/12 11:24:23;;;;;;;8.95;8.45;;;;;;;5.52;30.09;102101.34;5030148;28;20493;-65
2022/03/12 11:27:03;;;;;;;8.70;8.20;;;;;;;5.28;30.53;102090.63;5039039;28;20142;-68